createdAt,value
2022-08-10T00:04:02.376Z,99.90
2022-08-10T00:06:29.940Z,99.90
2022-08-10T00:08:56.866Z,99.90
2022-08-10T00:11:24.087Z,99.90
2022-08-10T00:13:51.894Z,99.90
2022-08-10T00:16:19.431Z,99.90
2022-08-10T00:18:46.332Z,99.90
2022-08-10T00:21:13.359Z,99.90
2022-08-10T00:23:40.356Z,99.90
2022-08-10T00:26:07.855Z,99.90
2022-08-10T00:28:35.018Z,99.90
2022-08-10T00:31:02.179Z,99.90
2022-08-10T00:33:29.074Z,99.90
2022-08-10T00:35:56.021Z,99.90
2022-08-10T00:38:23.460Z,99.90
2022-08-10T00:40:50.458Z,99.90
2022-08-10T00:43:23.551Z,99.90
2022-08-10T00:45:59.062Z,99.90
2022-08-10T00:48:30.217Z,99.90
2022-08-10T00:50:59.268Z,99.90
2022-08-10T00:53:29.319Z,99.90
2022-08-10T00:57:12.440Z,99.90
2022-08-10T00:58:44.619Z,99.90
2022-08-10T01:02:09.965Z,99.90
2022-08-10T01:04:36.206Z,99.90
2022-08-10T01:06:52.158Z,99.90
2022-08-10T01:09:34.119Z,99.90
2022-08-10T01:12:39.817Z,99.90
2022-08-10T01:15:10.275Z,99.90
2022-08-10T01:17:50.228Z,99.90
2022-08-10T01:20:30.483Z,99.90
2022-08-10T01:23:40.525Z,99.90
2022-08-10T01:26:40.932Z,99.90
2022-08-10T01:29:17.436Z,99.90
2022-08-10T01:31:48.653Z,99.90
2022-08-10T01:34:24.707Z,99.90
2022-08-10T01:36:56.114Z,99.90
2022-08-10T01:39:28.632Z,99.90
2022-08-10T01:42:00.353Z,99.90
2022-08-10T01:44:35.371Z,99.90
2022-08-10T01:47:27.586Z,99.90
2022-08-10T01:50:02.227Z,99.90
2022-08-10T01:52:30.996Z,99.90
2022-08-10T01:54:59.261Z,99.90
2022-08-10T01:57:30.559Z,99.90
2022-08-10T02:00:02.093Z,99.90
2022-08-10T02:02:31.869Z,99.90
2022-08-10T02:05:02.294Z,99.90
2022-08-10T02:07:31.313Z,99.90
2022-08-10T02:10:06.973Z,99.90
2022-08-10T02:12:35.986Z,99.90
2022-08-10T02:15:07.355Z,99.90
2022-08-10T02:17:58.007Z,99.90
2022-08-10T02:20:37.285Z,99.90
2022-08-10T02:23:15.353Z,99.90
2022-08-10T02:25:44.716Z,99.90
2022-08-10T02:28:30.975Z,99.90
2022-08-10T02:31:06.980Z,99.90
2022-08-10T02:33:57.233Z,99.90
2022-08-10T02:36:27.873Z,99.90
2022-08-10T02:39:00.669Z,99.90
2022-08-10T02:45:01.158Z,99.90
2022-08-10T02:45:27.814Z,99.90
2022-08-10T02:47:51.245Z,99.90
2022-08-10T02:50:30.225Z,99.90
2022-08-10T02:53:54.587Z,99.90
2022-08-10T02:56:11.970Z,99.90
2022-08-10T02:58:44.134Z,99.90
2022-08-10T03:01:15.794Z,99.90
2022-08-10T03:04:04.420Z,99.90
2022-08-10T03:06:37.118Z,99.90
2022-08-10T03:09:08.618Z,99.90
2022-08-10T03:12:36.535Z,99.90
2022-08-10T03:14:26.669Z,99.90
2022-08-10T03:16:55.873Z,99.90
2022-08-10T03:20:35.413Z,99.90
2022-08-10T03:22:14.366Z,99.90
2022-08-10T03:24:43.616Z,99.90
2022-08-10T03:27:12.061Z,99.90
2022-08-10T03:30:31.705Z,99.90
2022-08-10T03:32:27.119Z,99.90
2022-08-10T03:34:54.903Z,99.90
2022-08-10T03:37:21.795Z,99.90
2022-08-10T03:39:51.320Z,99.90
2022-08-10T03:42:19.127Z,99.90
2022-08-10T03:44:50.379Z,99.90
2022-08-10T03:47:20.430Z,99.90
2022-08-10T03:49:49.707Z,99.90
2022-08-10T03:52:18.001Z,99.90
2022-08-10T03:54:45.472Z,99.90
2022-08-10T03:57:13.565Z,99.90
2022-08-10T03:59:40.667Z,99.90
2022-08-10T04:02:43.692Z,99.90
2022-08-10T04:04:55.185Z,99.90
2022-08-10T04:07:22.761Z,99.90
2022-08-10T04:09:55.206Z,99.90
2022-08-10T04:12:24.350Z,99.90
2022-08-10T04:14:53.146Z,99.90
2022-08-10T04:18:01.358Z,99.90
2022-08-10T04:20:42.564Z,99.90
2022-08-10T04:23:14.183Z,99.90
2022-08-10T04:25:41.502Z,99.90
2022-08-10T04:28:09.180Z,99.90
2022-08-10T04:30:37.097Z,99.90
2022-08-10T04:33:06.765Z,99.90
2022-08-10T04:35:35.509Z,99.90
2022-08-10T04:38:04.452Z,99.90
2022-08-10T04:40:31.978Z,99.90
2022-08-10T04:43:10.826Z,99.90
2022-08-10T04:45:47.387Z,99.90
2022-08-10T04:48:40.038Z,99.90
2022-08-10T04:51:17.870Z,99.90
2022-08-10T04:54:05.634Z,99.90
2022-08-10T04:56:35.533Z,99.90
2022-08-10T04:59:02.636Z,99.90
2022-08-10T05:01:37.744Z,99.90
2022-08-10T05:04:34.789Z,99.90
2022-08-10T05:07:05.640Z,99.90
2022-08-10T05:09:32.552Z,99.90
2022-08-10T05:11:59.435Z,99.90
2022-08-10T05:14:26.358Z,99.90
2022-08-10T05:16:53.255Z,99.90
2022-08-10T05:20:01.320Z,99.90
2022-08-10T05:22:08.604Z,99.90
2022-08-10T05:24:35.536Z,99.90
2022-08-10T05:27:09.423Z,99.90
2022-08-10T05:29:37.917Z,99.90
2022-08-10T05:32:05.453Z,99.90
2022-08-10T05:34:32.382Z,99.90
2022-08-10T05:36:59.928Z,99.90
2022-08-10T05:39:32.160Z,99.90
2022-08-10T05:42:01.175Z,99.90
2022-08-10T05:44:29.571Z,99.90
2022-08-10T05:46:56.661Z,99.90
2022-08-10T05:49:23.679Z,99.90
2022-08-10T05:51:50.885Z,99.90
2022-08-10T05:54:17.955Z,99.90
2022-08-10T05:56:56.176Z,99.90
2022-08-10T06:00:31.006Z,99.90
2022-08-10T06:02:43.975Z,99.90
2022-08-10T06:05:14.547Z,99.90
2022-08-10T06:07:57.299Z,99.90
2022-08-10T06:10:31.292Z,99.90
2022-08-10T06:13:27.035Z,99.90
2022-08-10T06:16:04.321Z,99.90
2022-08-10T06:18:31.622Z,99.90
2022-08-10T06:20:59.324Z,99.90
2022-08-10T06:23:28.390Z,99.90
2022-08-10T06:26:12.167Z,99.90
2022-08-10T06:29:07.132Z,99.90
2022-08-10T06:31:48.236Z,99.90
2022-08-10T06:34:21.503Z,99.90
2022-08-10T06:36:49.081Z,99.90
2022-08-10T06:39:33.110Z,99.90
2022-08-10T06:42:18.101Z,99.90
2022-08-10T06:45:09.989Z,99.90
2022-08-10T06:47:43.910Z,99.90
2022-08-10T06:50:34.796Z,99.90
2022-08-10T06:53:20.821Z,99.90
2022-08-10T06:55:56.795Z,99.90
2022-08-10T06:58:34.652Z,99.90
2022-08-10T07:01:05.577Z,99.90
2022-08-10T07:03:38.713Z,99.90
2022-08-10T07:06:06.625Z,99.90
2022-08-10T07:08:36.332Z,99.90
2022-08-10T07:11:08.791Z,99.90
2022-08-10T07:14:15.970Z,99.90
2022-08-10T07:16:30.247Z,99.90
2022-08-10T07:18:58.611Z,99.90
2022-08-10T07:21:27.254Z,99.90
2022-08-10T07:24:00.406Z,99.90
2022-08-10T07:26:30.441Z,99.90
2022-08-10T07:28:58.612Z,98.10
2022-08-10T07:31:31.111Z,96.10
2022-08-10T07:34:28.698Z,95.10
2022-08-10T07:37:01.194Z,94.20
2022-08-10T07:40:02.970Z,93.40
2022-08-10T07:42:22.116Z,93.30
2022-08-10T07:44:50.847Z,91.70
2022-08-10T07:47:53.647Z,90.30
2022-08-10T07:50:12.972Z,90.70
2022-08-10T07:52:40.477Z,88.40
2022-08-10T07:55:10.372Z,90.00
2022-08-10T07:57:40.270Z,88.40
2022-08-10T08:00:10.928Z,87.20
2022-08-10T08:02:55.365Z,88.50
2022-08-10T08:05:59.031Z,86.30
2022-08-10T08:08:16.227Z,86.90
2022-08-10T08:10:43.357Z,87.90
2022-08-10T08:13:11.584Z,86.00
2022-08-10T08:16:20.612Z,85.70
2022-08-10T08:18:29.247Z,84.30
2022-08-10T08:20:58.255Z,85.00
2022-08-10T08:24:07.808Z,87.70
2022-08-10T08:26:18.949Z,83.10
2022-08-10T08:28:48.772Z,85.00
2022-08-10T08:31:17.968Z,84.70
2022-08-10T08:33:47.136Z,84.90
2022-08-10T08:36:17.142Z,83.30
2022-08-10T08:38:46.135Z,83.20
2022-08-10T08:41:24.826Z,83.10
2022-08-10T08:44:03.535Z,84.00
2022-08-10T08:46:58.886Z,84.10
2022-08-10T08:50:09.765Z,85.30
2022-08-10T08:53:22.428Z,84.80
2022-08-10T08:56:07.356Z,82.40
2022-08-10T08:59:03.122Z,81.00
2022-08-10T09:02:14.414Z,77.80
2022-08-10T09:04:52.895Z,77.00
2022-08-10T09:07:59.582Z,75.10
2022-08-10T09:10:54.093Z,75.50
2022-08-10T09:13:29.547Z,77.30
2022-08-10T09:16:08.824Z,74.50
2022-08-10T09:18:56.645Z,76.10
2022-08-10T09:22:18.901Z,73.70
2022-08-10T09:25:00.914Z,72.60
2022-08-10T09:27:50.083Z,72.80
2022-08-10T09:30:28.376Z,71.30
2022-08-10T09:36:21.774Z,70.80
2022-08-10T09:36:26.785Z,68.90
2022-08-10T09:39:03.737Z,67.20
2022-08-10T09:41:37.817Z,67.80
2022-08-10T09:44:32.334Z,65.20
2022-08-10T09:47:19.814Z,65.30
2022-08-10T09:50:05.401Z,64.00
2022-08-10T09:52:59.654Z,63.20
2022-08-10T09:56:17.717Z,62.30
2022-08-10T09:58:40.302Z,63.40
2022-08-10T10:02:02.836Z,62.00
2022-08-10T10:04:57.768Z,61.40
2022-08-10T10:07:28.612Z,60.30
2022-08-10T10:10:14.328Z,59.90
2022-08-10T10:12:57.211Z,61.10
2022-08-10T10:16:03.568Z,59.40
2022-08-10T10:18:46.016Z,60.20
2022-08-10T10:21:54.421Z,62.20
2022-08-10T10:24:53.038Z,62.30
2022-08-10T10:28:07.987Z,62.80
2022-08-10T10:30:46.165Z,63.90
2022-08-10T10:33:19.564Z,65.20
2022-08-10T10:35:55.400Z,65.10
2022-08-10T10:38:29.908Z,65.60
2022-08-10T10:41:56.152Z,67.50
2022-08-10T10:44:46.848Z,68.80
2022-08-10T10:47:47.758Z,70.80
2022-08-10T10:50:41.666Z,72.00
2022-08-10T10:53:36.791Z,72.60
2022-08-10T10:56:15.053Z,72.60
2022-08-10T10:58:58.428Z,75.10
2022-08-10T11:01:43.915Z,75.60
2022-08-10T11:04:42.648Z,74.70
2022-08-10T11:07:33.816Z,73.70
2022-08-10T11:10:32.083Z,75.10
2022-08-10T11:14:26.461Z,69.80
2022-08-10T11:16:18.255Z,68.10
2022-08-10T11:19:07.643Z,67.40
2022-08-10T11:21:56.681Z,64.10
2022-08-10T11:24:47.979Z,64.10
2022-08-10T11:27:35.487Z,64.70
2022-08-10T11:30:06.077Z,64.60
2022-08-10T11:32:41.402Z,65.10
2022-08-10T11:35:12.740Z,66.90
2022-08-10T11:38:31.713Z,67.60
2022-08-10T11:42:10.196Z,67.50
2022-08-10T11:44:25.271Z,70.30
2022-08-10T11:47:04.891Z,71.50
2022-08-10T11:49:40.809Z,70.40
2022-08-10T11:52:13.955Z,71.50
2022-08-10T11:54:53.235Z,71.90
2022-08-10T11:57:23.782Z,68.50
2022-08-10T11:59:58.326Z,67.90
2022-08-10T12:02:33.233Z,65.00
2022-08-10T12:05:06.166Z,63.30
2022-08-10T12:10:07.578Z,63.50
2022-08-10T12:10:23.540Z,62.60
2022-08-10T12:13:17.158Z,59.90
2022-08-10T12:16:01.001Z,59.30
2022-08-10T12:18:31.608Z,61.50
2022-08-10T12:21:03.364Z,61.70
2022-08-10T12:23:39.366Z,64.00
2022-08-10T12:26:13.869Z,63.50
2022-08-10T12:28:50.103Z,65.20
2022-08-10T12:31:25.170Z,66.70
2022-08-10T12:34:16.032Z,66.20
2022-08-10T12:36:47.743Z,66.10
2022-08-10T12:39:19.033Z,67.20
2022-08-10T12:41:59.995Z,65.70
2022-08-10T12:44:50.291Z,67.90
2022-08-10T12:47:32.724Z,65.60
2022-08-10T12:50:33.850Z,65.10
2022-08-10T12:53:31.185Z,64.50
2022-08-10T12:55:58.471Z,62.20
2022-08-10T12:59:00.209Z,60.00
2022-08-10T13:01:16.933Z,58.80
2022-08-10T13:04:21.766Z,58.50
2022-08-10T13:06:41.776Z,56.00
2022-08-10T13:09:08.994Z,55.90
2022-08-10T13:12:38.644Z,54.30
2022-08-10T13:15:45.867Z,54.70
2022-08-10T13:18:04.843Z,54.30
2022-08-10T13:20:37.119Z,53.30
2022-08-10T13:23:13.281Z,53.80
2022-08-10T13:25:45.578Z,53.70
2022-08-10T13:28:36.542Z,53.60
2022-08-10T13:31:16.981Z,53.60
2022-08-10T13:34:40.215Z,55.10
2022-08-10T13:36:57.167Z,55.40
2022-08-10T13:39:27.744Z,56.20
2022-08-10T13:41:56.293Z,57.80
2022-08-10T13:44:33.487Z,57.40
2022-08-10T13:47:00.820Z,58.20
2022-08-10T13:49:30.485Z,57.80
2022-08-10T13:51:58.677Z,58.30
2022-08-10T13:54:35.906Z,59.00
2022-08-10T13:57:04.171Z,57.40
2022-08-10T14:00:35.505Z,58.10
2022-08-10T14:02:39.196Z,58.90
2022-08-10T14:05:07.443Z,59.40
2022-08-10T14:08:00.557Z,58.30
2022-08-10T14:11:08.568Z,57.00
2022-08-10T14:13:23.766Z,55.90
2022-08-10T14:15:51.017Z,54.00
2022-08-10T14:18:18.886Z,54.60
2022-08-10T14:20:48.088Z,55.30
2022-08-10T14:23:15.705Z,56.40
2022-08-10T14:25:56.558Z,55.60
2022-08-10T14:28:31.322Z,56.20
2022-08-10T14:31:03.595Z,56.00
2022-08-10T14:33:32.024Z,55.70
2022-08-10T14:36:19.103Z,55.00
2022-08-10T14:38:48.843Z,56.10
2022-08-10T14:42:02.716Z,55.60
2022-08-10T14:44:13.775Z,56.50
2022-08-10T14:46:45.950Z,56.90
2022-08-10T14:49:26.084Z,57.10
2022-08-10T14:51:59.766Z,55.70
2022-08-10T14:54:29.836Z,56.60
2022-08-10T14:57:11.049Z,56.20
2022-08-10T15:00:24.730Z,56.40
2022-08-10T15:02:40.168Z,54.90
2022-08-10T15:05:22.035Z,55.10
2022-08-10T15:07:59.261Z,54.00
2022-08-10T15:10:28.741Z,54.40
2022-08-10T15:12:58.620Z,54.10
2022-08-10T15:15:28.671Z,54.00
2022-08-10T15:17:58.672Z,54.50
2022-08-10T15:20:28.676Z,54.30
2022-08-10T15:23:08.317Z,53.40
2022-08-10T15:25:59.633Z,54.20
2022-08-10T15:29:04.090Z,55.30
2022-08-10T15:31:19.883Z,56.50
2022-08-10T15:34:08.784Z,55.60
2022-08-10T15:37:36.154Z,55.50
2022-08-10T15:40:23.815Z,55.50
2022-08-10T15:42:52.335Z,55.70
2022-08-10T15:45:19.581Z,53.30
2022-08-10T15:48:02.392Z,53.00
2022-08-10T15:50:43.768Z,54.80
2022-08-10T15:53:16.800Z,54.50
2022-08-10T15:56:15.387Z,55.90
2022-08-10T15:59:13.035Z,55.80
2022-08-10T16:02:14.321Z,56.70
2022-08-10T16:05:10.975Z,55.90
2022-08-10T16:07:57.864Z,56.60
2022-08-10T16:10:30.856Z,56.60
2022-08-10T16:13:00.824Z,57.20
2022-08-10T16:15:30.323Z,56.70
2022-08-10T16:18:08.941Z,57.60
2022-08-10T16:20:52.474Z,57.50
2022-08-10T16:23:28.764Z,57.30
2022-08-10T16:26:04.597Z,57.60
2022-08-10T16:28:38.806Z,57.50
2022-08-10T16:31:08.277Z,57.50
2022-08-10T16:33:53.039Z,57.50
2022-08-10T16:36:22.356Z,57.60
2022-08-10T16:38:52.328Z,58.00
2022-08-10T16:42:00.381Z,58.40
2022-08-10T16:44:11.197Z,59.70
2022-08-10T16:46:42.677Z,59.90
2022-08-10T16:49:10.997Z,60.40
2022-08-10T16:51:39.873Z,61.10
2022-08-10T16:54:09.126Z,61.60
2022-08-10T16:56:49.345Z,61.70
2022-08-10T16:59:21.032Z,62.30
2022-08-10T17:01:54.172Z,61.40
2022-08-10T17:04:23.674Z,61.70
2022-08-10T17:06:58.844Z,62.20
2022-08-10T17:09:35.324Z,61.80
2022-08-10T17:12:13.806Z,63.60
2022-08-10T17:14:43.367Z,64.50
2022-08-10T17:17:27.383Z,63.80
2022-08-10T17:19:57.532Z,64.80
2022-08-10T17:22:45.540Z,65.10
2022-08-10T17:25:16.297Z,65.30
2022-08-10T17:28:04.051Z,64.70
2022-08-10T17:30:36.857Z,65.40
2022-08-10T17:33:21.858Z,65.70
2022-08-10T17:35:51.757Z,65.70
2022-08-10T17:38:22.937Z,66.20
2022-08-10T17:41:12.630Z,66.60
2022-08-10T17:43:57.093Z,66.50
2022-08-10T17:46:33.457Z,65.50
2022-08-10T17:49:07.077Z,68.40
2022-08-10T17:51:34.591Z,69.80
2022-08-10T17:54:04.498Z,71.20
2022-08-10T17:56:33.784Z,71.80
2022-08-10T17:59:14.645Z,72.60
2022-08-10T18:02:01.762Z,73.90
2022-08-10T18:04:40.886Z,74.40
2022-08-10T18:07:10.252Z,74.60
2022-08-10T18:09:57.603Z,75.50
2022-08-10T18:12:38.764Z,76.20
2022-08-10T18:15:12.229Z,76.00
2022-08-10T18:17:44.756Z,76.20
2022-08-10T18:20:13.171Z,76.30
2022-08-10T18:22:44.998Z,76.70
2022-08-10T18:25:27.278Z,76.70
2022-08-10T18:28:04.498Z,77.40
2022-08-10T18:30:36.529Z,77.90
2022-08-10T18:33:08.748Z,78.60
2022-08-10T18:35:36.353Z,78.70
2022-08-10T18:38:04.136Z,79.10
2022-08-10T18:40:36.356Z,79.00
2022-08-10T18:44:07.451Z,78.70
2022-08-10T18:45:57.250Z,79.10
2022-08-10T18:48:33.251Z,79.60
2022-08-10T18:51:05.932Z,79.60
2022-08-10T18:53:36.260Z,79.70
2022-08-10T18:56:31.139Z,80.20
2022-08-10T18:59:27.223Z,80.60
2022-08-10T19:02:41.529Z,81.20
2022-08-10T19:05:48.634Z,82.50
2022-08-10T19:08:49.179Z,83.00
2022-08-10T19:11:41.258Z,83.90
2022-08-10T19:14:16.359Z,84.80
2022-08-10T19:16:49.244Z,85.40
2022-08-10T19:19:37.549Z,85.60
2022-08-10T19:22:16.965Z,85.90
2022-08-10T19:25:01.685Z,86.10
2022-08-10T19:27:59.534Z,87.10
2022-08-10T19:30:40.307Z,87.70
2022-08-10T19:33:31.295Z,88.20
2022-08-10T19:36:08.703Z,88.80
2022-08-10T19:38:46.988Z,89.30
2022-08-10T19:41:44.415Z,89.70
2022-08-10T19:44:31.280Z,89.90
2022-08-10T19:47:29.037Z,90.10
2022-08-10T19:50:15.011Z,90.30
2022-08-10T19:53:26.055Z,90.00
2022-08-10T19:56:34.263Z,90.20
2022-08-10T19:59:17.073Z,90.60
2022-08-10T20:02:04.406Z,90.80
2022-08-10T20:04:36.391Z,91.10
2022-08-10T20:07:27.541Z,91.40
2022-08-10T20:10:22.028Z,91.80
2022-08-10T20:13:10.154Z,91.90
2022-08-10T20:15:47.477Z,92.10
2022-08-10T20:18:22.925Z,92.00
2022-08-10T20:20:56.669Z,92.10
2022-08-10T20:23:34.198Z,92.50
2022-08-10T20:26:05.528Z,92.90
2022-08-10T20:28:49.769Z,92.80
2022-08-10T20:31:41.185Z,92.90
2022-08-10T20:34:16.532Z,92.80
2022-08-10T20:37:07.596Z,92.80
2022-08-10T20:39:43.739Z,93.30
2022-08-10T20:42:13.362Z,93.00
2022-08-10T20:45:01.892Z,93.50
2022-08-10T20:47:44.280Z,93.80
2022-08-10T20:50:37.020Z,94.10
2022-08-10T20:53:11.305Z,94.60
2022-08-10T20:55:58.408Z,95.30
2022-08-10T20:58:53.883Z,95.00
2022-08-10T21:02:07.176Z,95.00
2022-08-10T21:04:49.876Z,95.10
2022-08-10T21:08:00.572Z,95.30
2022-08-10T21:10:58.092Z,95.60
2022-08-10T21:13:38.151Z,95.80
2022-08-10T21:16:20.470Z,95.90
2022-08-10T21:19:18.653Z,96.10
2022-08-10T21:22:03.702Z,96.20
2022-08-10T21:24:54.769Z,96.50
2022-08-10T21:27:47.221Z,96.60
2022-08-10T21:30:20.604Z,96.80
2022-08-10T21:32:59.323Z,97.10
2022-08-10T21:35:48.636Z,97.20
2022-08-10T21:38:40.314Z,97.70
2022-08-10T21:41:57.933Z,97.70
2022-08-10T21:45:58.242Z,97.80
2022-08-10T21:48:57.241Z,97.80
2022-08-10T21:52:01.634Z,98.40
2022-08-10T21:54:58.286Z,98.30
2022-08-10T21:57:58.884Z,98.20
2022-08-10T22:03:48.951Z,98.80
2022-08-10T22:06:52.643Z,99.10
2022-08-10T22:09:43.077Z,99.80
2022-08-10T22:12:32.471Z,99.40
2022-08-10T22:16:03.090Z,99.80
2022-08-10T22:19:01.409Z,99.90
2022-08-10T22:21:56.992Z,99.90
2022-08-10T22:25:03.445Z,99.90
2022-08-10T22:27:55.652Z,99.90
2022-08-10T22:31:14.895Z,99.90
2022-08-10T22:33:51.600Z,99.90
2022-08-10T22:37:09.472Z,99.90
2022-08-10T22:40:14.001Z,99.90
2022-08-10T22:43:10.359Z,99.90
2022-08-10T22:46:01.852Z,99.90
2022-08-10T22:48:47.209Z,99.90
2022-08-10T22:51:23.443Z,99.90
2022-08-10T22:54:31.009Z,99.90
2022-08-10T22:57:18.918Z,99.90
2022-08-10T22:59:47.034Z,99.90
2022-08-10T23:02:33.719Z,99.90
2022-08-10T23:05:09.289Z,99.90
2022-08-10T23:07:49.438Z,99.90
2022-08-10T23:10:20.250Z,99.90
2022-08-10T23:13:09.971Z,99.90
2022-08-10T23:15:59.932Z,99.90
2022-08-10T23:18:56.807Z,99.90
2022-08-10T23:22:01.643Z,99.90
2022-08-10T23:24:22.676Z,99.90
2022-08-10T23:26:54.322Z,99.90
2022-08-10T23:29:23.491Z,99.90
2022-08-10T23:32:06.693Z,99.90
2022-08-10T23:34:36.919Z,99.90
2022-08-10T23:37:07.866Z,99.90
2022-08-10T23:39:42.167Z,99.90
2022-08-10T23:42:17.539Z,99.90
2022-08-10T23:44:55.980Z,99.90
2022-08-10T23:47:25.655Z,99.90
2022-08-10T23:49:55.635Z,99.90
2022-08-10T23:52:30.282Z,99.90
2022-08-10T23:55:00.993Z,99.90
2022-08-10T23:57:29.594Z,99.90
